sensor_id;sensor_type;location;lat;lon;timestamp;P1;durP1;ratioP1;P2;durP2;ratioP2
18228;SDS011;9239;50.932;3.142;2023-04-01T00:01:41;10.70;;;5.70;;
18228;SDS011;9239;50.932;3.142;2023-04-01T00:04:07;11.23;;;6.17;;
18228;SDS011;9239;50.932;3.142;2023-04-01T00:06:34;13.73;;;5.60;;
18228;SDS011;9239;50.932;3.142;2023-04-01T00:09:01;15.73;;;7.60;;
18228;SDS011;9239;50.932;3.142;2023-04-01T00:11:29;12.80;;;6.70;;
18228;SDS011;9239;50.932;3.142;2023-04-01T00:13:56;13.30;;;6.47;;
18228;SDS011;9239;50.932;3.142;2023-04-01T00:16:23;13.53;;;6.80;;
18228;SDS011;9239;50.932;3.142;2023-04-01T00:18:50;12.87;;;6.07;;
18228;SDS011;9239;50.932;3.142;2023-04-01T00:21:18;14.67;;;6.30;;
18228;SDS011;9239;50.932;3.142;2023-04-01T00:23:46;10.47;;;6.23;;
18228;SDS011;9239;50.932;3.142;2023-04-01T00:26:13;16.40;;;7.17;;
18228;SDS011;9239;50.932;3.142;2023-04-01T00:28:45;11.97;;;6.57;;
18228;SDS011;9239;50.932;3.142;2023-04-01T00:31:12;13.33;;;6.80;;
18228;SDS011;9239;50.932;3.142;2023-04-01T00:33:40;14.67;;;7.30;;
18228;SDS011;9239;50.932;3.142;2023-04-01T00:36:08;15.20;;;6.70;;
18228;SDS011;9239;50.932;3.142;2023-04-01T00:38:36;11.87;;;6.23;;
18228;SDS011;9239;50.932;3.142;2023-04-01T00:41:03;16.47;;;6.50;;
18228;SDS011;9239;50.932;3.142;2023-04-01T00:43:31;13.40;;;5.90;;
18228;SDS011;9239;50.932;3.142;2023-04-01T00:46:00;11.73;;;6.23;;
18228;SDS011;9239;50.932;3.142;2023-04-01T00:48:27;16.23;;;7.00;;
18228;SDS011;9239;50.932;3.142;2023-04-01T00:50:57;13.93;;;7.20;;
18228;SDS011;9239;50.932;3.142;2023-04-01T00:53:28;13.23;;;6.87;;
18228;SDS011;9239;50.932;3.142;2023-04-01T00:55:58;13.40;;;6.93;;
18228;SDS011;9239;50.932;3.142;2023-04-01T00:58:29;10.37;;;6.47;;
18228;SDS011;9239;50.932;3.142;2023-04-01T01:01:02;15.73;;;7.10;;
18228;SDS011;9239;50.932;3.142;2023-04-01T01:03:29;13.63;;;6.50;;
18228;SDS011;9239;50.932;3.142;2023-04-01T01:06:03;14.27;;;8.17;;
18228;SDS011;9239;50.932;3.142;2023-04-01T01:11:44;16.10;;;7.87;;
18228;SDS011;9239;50.932;3.142;2023-04-01T01:14:23;14.10;;;8.27;;
18228;SDS011;9239;50.932;3.142;2023-04-01T01:17:02;19.63;;;7.63;;
18228;SDS011;9239;50.932;3.142;2023-04-01T01:19:45;16.17;;;6.97;;
18228;SDS011;9239;50.932;3.142;2023-04-01T01:22:32;16.50;;;6.90;;
18228;SDS011;9239;50.932;3.142;2023-04-01T01:25:12;16.40;;;6.43;;
18228;SDS011;9239;50.932;3.142;2023-04-01T01:27:49;14.83;;;6.37;;
18228;SDS011;9239;50.932;3.142;2023-04-01T01:30:26;10.17;;;5.77;;
18228;SDS011;9239;50.932;3.142;2023-04-01T01:33:06;11.23;;;5.57;;
18228;SDS011;9239;50.932;3.142;2023-04-01T01:35:56;15.17;;;6.27;;
18228;SDS011;9239;50.932;3.142;2023-04-01T01:38:29;11.87;;;5.57;;
18228;SDS011;9239;50.932;3.142;2023-04-01T01:40:59;13.83;;;6.27;;
18228;SDS011;9239;50.932;3.142;2023-04-01T01:43:30;10.23;;;5.30;;
18228;SDS011;9239;50.932;3.142;2023-04-01T01:45:59;16.03;;;5.47;;
18228;SDS011;9239;50.932;3.142;2023-04-01T01:48:33;18.10;;;5.37;;
18228;SDS011;9239;50.932;3.142;2023-04-01T01:51:02;17.60;;;6.20;;
18228;SDS011;9239;50.932;3.142;2023-04-01T01:53:31;12.37;;;5.80;;
18228;SDS011;9239;50.932;3.142;2023-04-01T01:55:58;13.67;;;5.33;;
18228;SDS011;9239;50.932;3.142;2023-04-01T01:58:27;17.47;;;6.70;;
18228;SDS011;9239;50.932;3.142;2023-04-01T02:00:57;14.07;;;5.90;;
18228;SDS011;9239;50.932;3.142;2023-04-01T02:03:26;19.13;;;7.90;;
18228;SDS011;9239;50.932;3.142;2023-04-01T02:05:58;13.60;;;6.10;;
18228;SDS011;9239;50.932;3.142;2023-04-01T02:08:29;15.77;;;7.00;;
18228;SDS011;9239;50.932;3.142;2023-04-01T02:11:02;9.37;;;5.93;;
18228;SDS011;9239;50.932;3.142;2023-04-01T02:13:33;12.37;;;6.27;;
18228;SDS011;9239;50.932;3.142;2023-04-01T02:16:06;13.83;;;5.87;;
18228;SDS011;9239;50.932;3.142;2023-04-01T02:18:39;11.37;;;6.27;;
18228;SDS011;9239;50.932;3.142;2023-04-01T02:21:07;10.33;;;4.90;;
18228;SDS011;9239;50.932;3.142;2023-04-01T02:23:37;12.00;;;5.00;;
18228;SDS011;9239;50.932;3.142;2023-04-01T02:26:05;9.20;;;5.27;;
18228;SDS011;9239;50.932;3.142;2023-04-01T02:28:34;8.77;;;4.50;;
18228;SDS011;9239;50.932;3.142;2023-04-01T02:31:04;10.50;;;4.33;;
18228;SDS011;9239;50.932;3.142;2023-04-01T02:33:33;10.17;;;5.73;;
18228;SDS011;9239;50.932;3.142;2023-04-01T02:36:00;12.57;;;5.70;;
18228;SDS011;9239;50.932;3.142;2023-04-01T02:38:27;13.63;;;5.70;;
18228;SDS011;9239;50.932;3.142;2023-04-01T02:40:57;7.83;;;5.50;;
18228;SDS011;9239;50.932;3.142;2023-04-01T02:43:26;11.77;;;6.07;;
18228;SDS011;9239;50.932;3.142;2023-04-01T02:45:53;9.47;;;5.50;;
18228;SDS011;9239;50.932;3.142;2023-04-01T02:48:20;7.97;;;5.67;;
18228;SDS011;9239;50.932;3.142;2023-04-01T02:50:47;14.27;;;7.03;;
18228;SDS011;9239;50.932;3.142;2023-04-01T02:53:14;12.63;;;6.73;;
18228;SDS011;9239;50.932;3.142;2023-04-01T02:55:41;13.33;;;7.87;;
18228;SDS011;9239;50.932;3.142;2023-04-01T02:58:11;11.90;;;7.13;;
18228;SDS011;9239;50.932;3.142;2023-04-01T03:00:38;12.93;;;7.77;;
18228;SDS011;9239;50.932;3.142;2023-04-01T03:03:05;13.80;;;8.20;;
18228;SDS011;9239;50.932;3.142;2023-04-01T03:05:32;13.43;;;7.63;;
18228;SDS011;9239;50.932;3.142;2023-04-01T03:07:58;12.93;;;7.67;;
18228;SDS011;9239;50.932;3.142;2023-04-01T03:10:26;13.60;;;8.33;;
18228;SDS011;9239;50.932;3.142;2023-04-01T03:12:53;12.63;;;8.17;;
18228;SDS011;9239;50.932;3.142;2023-04-01T03:15:21;13.07;;;8.07;;
18228;SDS011;9239;50.932;3.142;2023-04-01T03:17:48;12.20;;;8.93;;
18228;SDS011;9239;50.932;3.142;2023-04-01T03:20:16;15.20;;;8.37;;
18228;SDS011;9239;50.932;3.142;2023-04-01T03:22:44;12.03;;;7.67;;
18228;SDS011;9239;50.932;3.142;2023-04-01T03:25:11;15.40;;;9.33;;
18228;SDS011;9239;50.932;3.142;2023-04-01T03:27:39;13.23;;;7.80;;
18228;SDS011;9239;50.932;3.142;2023-04-01T03:30:06;13.93;;;7.93;;
18228;SDS011;9239;50.932;3.142;2023-04-01T03:32:35;16.57;;;9.13;;
18228;SDS011;9239;50.932;3.142;2023-04-01T03:35:02;13.77;;;8.37;;
18228;SDS011;9239;50.932;3.142;2023-04-01T03:37:30;13.53;;;8.70;;
18228;SDS011;9239;50.932;3.142;2023-04-01T03:39:57;15.80;;;9.77;;
18228;SDS011;9239;50.932;3.142;2023-04-01T03:42:24;15.57;;;9.77;;
18228;SDS011;9239;50.932;3.142;2023-04-01T03:44:51;17.57;;;10.47;;
18228;SDS011;9239;50.932;3.142;2023-04-01T03:47:17;17.40;;;9.73;;
18228;SDS011;9239;50.932;3.142;2023-04-01T03:49:45;13.20;;;9.17;;
18228;SDS011;9239;50.932;3.142;2023-04-01T03:52:12;12.33;;;8.83;;
18228;SDS011;9239;50.932;3.142;2023-04-01T03:54:39;13.50;;;8.43;;
18228;SDS011;9239;50.932;3.142;2023-04-01T03:57:06;15.90;;;10.07;;
18228;SDS011;9239;50.932;3.142;2023-04-01T03:59:33;18.47;;;10.27;;
18228;SDS011;9239;50.932;3.142;2023-04-01T04:02:00;14.60;;;10.03;;
18228;SDS011;9239;50.932;3.142;2023-04-01T04:04:27;12.10;;;8.13;;
18228;SDS011;9239;50.932;3.142;2023-04-01T04:06:56;12.73;;;8.57;;
18228;SDS011;9239;50.932;3.142;2023-04-01T04:09:23;14.17;;;8.30;;
18228;SDS011;9239;50.932;3.142;2023-04-01T04:11:50;14.37;;;10.03;;
18228;SDS011;9239;50.932;3.142;2023-04-01T04:14:17;10.07;;;7.47;;
18228;SDS011;9239;50.932;3.142;2023-04-01T04:16:44;10.87;;;7.97;;
18228;SDS011;9239;50.932;3.142;2023-04-01T04:19:11;10.53;;;8.10;;
18228;SDS011;9239;50.932;3.142;2023-04-01T04:21:38;13.63;;;8.57;;
18228;SDS011;9239;50.932;3.142;2023-04-01T04:24:07;10.87;;;8.30;;
18228;SDS011;9239;50.932;3.142;2023-04-01T04:26:34;11.80;;;7.47;;
18228;SDS011;9239;50.932;3.142;2023-04-01T04:29:02;10.77;;;8.07;;
18228;SDS011;9239;50.932;3.142;2023-04-01T04:31:29;14.07;;;7.60;;
18228;SDS011;9239;50.932;3.142;2023-04-01T04:33:56;12.97;;;7.67;;
18228;SDS011;9239;50.932;3.142;2023-04-01T04:36:25;9.50;;;7.67;;
18228;SDS011;9239;50.932;3.142;2023-04-01T04:38:52;10.60;;;7.43;;
18228;SDS011;9239;50.932;3.142;2023-04-01T04:41:20;9.80;;;7.47;;
18228;SDS011;9239;50.932;3.142;2023-04-01T04:43:51;15.43;;;7.80;;
18228;SDS011;9239;50.932;3.142;2023-04-01T04:46:19;13.97;;;7.93;;
18228;SDS011;9239;50.932;3.142;2023-04-01T04:48:46;10.07;;;7.87;;
18228;SDS011;9239;50.932;3.142;2023-04-01T04:51:14;12.23;;;7.20;;
18228;SDS011;9239;50.932;3.142;2023-04-01T04:53:41;8.50;;;7.10;;
18228;SDS011;9239;50.932;3.142;2023-04-01T04:56:08;11.57;;;7.50;;
18228;SDS011;9239;50.932;3.142;2023-04-01T04:58:37;11.77;;;7.53;;
18228;SDS011;9239;50.932;3.142;2023-04-01T05:01:08;9.73;;;7.50;;
18228;SDS011;9239;50.932;3.142;2023-04-01T05:03:36;11.60;;;8.37;;
18228;SDS011;9239;50.932;3.142;2023-04-01T05:06:03;14.30;;;7.37;;
18228;SDS011;9239;50.932;3.142;2023-04-01T05:08:31;10.37;;;7.43;;
18228;SDS011;9239;50.932;3.142;2023-04-01T05:10:59;9.53;;;7.30;;
18228;SDS011;9239;50.932;3.142;2023-04-01T05:13:27;12.83;;;8.37;;
18228;SDS011;9239;50.932;3.142;2023-04-01T05:15:55;13.23;;;7.90;;
18228;SDS011;9239;50.932;3.142;2023-04-01T05:18:22;9.10;;;7.10;;
18228;SDS011;9239;50.932;3.142;2023-04-01T05:20:50;11.47;;;7.13;;
18228;SDS011;9239;50.932;3.142;2023-04-01T05:23:18;12.77;;;7.30;;
18228;SDS011;9239;50.932;3.142;2023-04-01T05:25:46;9.27;;;7.07;;
18228;SDS011;9239;50.932;3.142;2023-04-01T05:28:13;11.93;;;7.60;;
18228;SDS011;9239;50.932;3.142;2023-04-01T05:30:41;11.37;;;7.50;;
18228;SDS011;9239;50.932;3.142;2023-04-01T05:33:10;10.77;;;7.10;;
18228;SDS011;9239;50.932;3.142;2023-04-01T05:35:38;9.43;;;6.73;;
18228;SDS011;9239;50.932;3.142;2023-04-01T05:38:05;8.87;;;7.13;;
18228;SDS011;9239;50.932;3.142;2023-04-01T05:40:32;10.90;;;7.20;;
18228;SDS011;9239;50.932;3.142;2023-04-01T05:42:59;9.57;;;7.43;;
18228;SDS011;9239;50.932;3.142;2023-04-01T05:45:26;11.57;;;6.70;;
18228;SDS011;9239;50.932;3.142;2023-04-01T05:47:53;10.27;;;7.23;;
18228;SDS011;9239;50.932;3.142;2023-04-01T05:50:21;10.37;;;7.63;;
18228;SDS011;9239;50.932;3.142;2023-04-01T05:52:48;8.93;;;6.63;;
18228;SDS011;9239;50.932;3.142;2023-04-01T05:55:15;9.37;;;6.93;;
18228;SDS011;9239;50.932;3.142;2023-04-01T05:57:44;13.20;;;7.87;;
18228;SDS011;9239;50.932;3.142;2023-04-01T06:00:11;11.03;;;7.20;;
18228;SDS011;9239;50.932;3.142;2023-04-01T06:02:39;9.93;;;7.97;;
18228;SDS011;9239;50.932;3.142;2023-04-01T06:05:12;9.77;;;7.20;;
18228;SDS011;9239;50.932;3.142;2023-04-01T06:07:43;9.93;;;6.70;;
18228;SDS011;9239;50.932;3.142;2023-04-01T06:10:11;7.13;;;5.93;;
18228;SDS011;9239;50.932;3.142;2023-04-01T06:12:42;6.73;;;5.20;;
18228;SDS011;9239;50.932;3.142;2023-04-01T06:15:20;8.37;;;6.03;;
18228;SDS011;9239;50.932;3.142;2023-04-01T06:17:59;6.77;;;5.60;;
18228;SDS011;9239;50.932;3.142;2023-04-01T06:20:58;7.83;;;5.90;;
18228;SDS011;9239;50.932;3.142;2023-04-01T06:23:39;10.80;;;6.77;;
18228;SDS011;9239;50.932;3.142;2023-04-01T06:26:22;8.07;;;5.67;;
18228;SDS011;9239;50.932;3.142;2023-04-01T06:29:08;8.53;;;6.20;;
18228;SDS011;9239;50.932;3.142;2023-04-01T06:32:17;10.10;;;6.30;;
18228;SDS011;9239;50.932;3.142;2023-04-01T06:38:03;6.47;;;5.07;;
18228;SDS011;9239;50.932;3.142;2023-04-01T06:40:51;8.57;;;4.60;;
18228;SDS011;9239;50.932;3.142;2023-04-01T06:43:41;6.60;;;4.97;;
18228;SDS011;9239;50.932;3.142;2023-04-01T06:46:18;7.00;;;4.70;;
18228;SDS011;9239;50.932;3.142;2023-04-01T06:48:53;6.60;;;5.07;;
18228;SDS011;9239;50.932;3.142;2023-04-01T06:51:39;9.20;;;4.70;;
18228;SDS011;9239;50.932;3.142;2023-04-01T06:54:14;7.87;;;3.67;;
18228;SDS011;9239;50.932;3.142;2023-04-01T06:56:48;8.77;;;3.87;;
18228;SDS011;9239;50.932;3.142;2023-04-01T06:59:21;4.30;;;3.20;;
18228;SDS011;9239;50.932;3.142;2023-04-01T07:01:52;4.63;;;3.10;;
18228;SDS011;9239;50.932;3.142;2023-04-01T07:04:22;4.60;;;3.07;;
18228;SDS011;9239;50.932;3.142;2023-04-01T07:06:55;4.40;;;2.87;;
18228;SDS011;9239;50.932;3.142;2023-04-01T07:09:25;4.03;;;3.17;;
18228;SDS011;9239;50.932;3.142;2023-04-01T07:11:59;5.83;;;3.30;;
18228;SDS011;9239;50.932;3.142;2023-04-01T07:14:28;3.90;;;2.33;;
18228;SDS011;9239;50.932;3.142;2023-04-01T07:16:59;4.00;;;3.17;;
18228;SDS011;9239;50.932;3.142;2023-04-01T07:19:32;6.33;;;4.40;;
18228;SDS011;9239;50.932;3.142;2023-04-01T07:22:03;4.47;;;3.40;;
18228;SDS011;9239;50.932;3.142;2023-04-01T07:24:33;5.13;;;3.60;;
18228;SDS011;9239;50.932;3.142;2023-04-01T07:27:04;4.50;;;3.40;;
18228;SDS011;9239;50.932;3.142;2023-04-01T07:29:34;5.97;;;4.03;;
18228;SDS011;9239;50.932;3.142;2023-04-01T07:32:07;7.50;;;4.80;;
18228;SDS011;9239;50.932;3.142;2023-04-01T07:34:44;6.70;;;4.67;;
18228;SDS011;9239;50.932;3.142;2023-04-01T07:37:34;6.93;;;4.53;;
18228;SDS011;9239;50.932;3.142;2023-04-01T07:40:14;10.27;;;5.27;;
18228;SDS011;9239;50.932;3.142;2023-04-01T07:42:53;7.43;;;5.17;;
18228;SDS011;9239;50.932;3.142;2023-04-01T07:45:37;5.10;;;4.37;;
18228;SDS011;9239;50.932;3.142;2023-04-01T07:48:10;7.70;;;4.73;;
18228;SDS011;9239;50.932;3.142;2023-04-01T07:50:46;7.43;;;4.17;;
18228;SDS011;9239;50.932;3.142;2023-04-01T07:53:18;4.83;;;4.30;;
18228;SDS011;9239;50.932;3.142;2023-04-01T07:55:52;5.40;;;3.80;;
18228;SDS011;9239;50.932;3.142;2023-04-01T07:58:28;5.27;;;3.83;;
18228;SDS011;9239;50.932;3.142;2023-04-01T08:01:06;5.70;;;3.83;;
18228;SDS011;9239;50.932;3.142;2023-04-01T08:03:45;7.43;;;3.73;;
18228;SDS011;9239;50.932;3.142;2023-04-01T08:06:25;4.70;;;3.37;;
18228;SDS011;9239;50.932;3.142;2023-04-01T08:08:59;4.00;;;3.60;;
18228;SDS011;9239;50.932;3.142;2023-04-01T08:11:39;5.80;;;3.73;;
18228;SDS011;9239;50.932;3.142;2023-04-01T08:14:18;6.17;;;3.73;;
18228;SDS011;9239;50.932;3.142;2023-04-01T08:16:56;5.53;;;4.30;;
18228;SDS011;9239;50.932;3.142;2023-04-01T08:19:30;6.13;;;3.47;;
18228;SDS011;9239;50.932;3.142;2023-04-01T08:22:07;6.50;;;3.23;;
18228;SDS011;9239;50.932;3.142;2023-04-01T08:24:41;7.23;;;3.77;;
18228;SDS011;9239;50.932;3.142;2023-04-01T08:27:11;6.57;;;3.70;;
18228;SDS011;9239;50.932;3.142;2023-04-01T08:29:44;5.67;;;3.97;;
18228;SDS011;9239;50.932;3.142;2023-04-01T08:32:16;3.73;;;3.40;;
18228;SDS011;9239;50.932;3.142;2023-04-01T08:34:50;6.63;;;3.73;;
18228;SDS011;9239;50.932;3.142;2023-04-01T08:37:23;4.33;;;3.20;;
18228;SDS011;9239;50.932;3.142;2023-04-01T08:39:55;5.07;;;3.50;;
18228;SDS011;9239;50.932;3.142;2023-04-01T08:45:24;4.83;;;3.70;;
18228;SDS011;9239;50.932;3.142;2023-04-01T08:48:13;5.33;;;2.80;;
18228;SDS011;9239;50.932;3.142;2023-04-01T08:51:15;8.00;;;2.87;;
18228;SDS011;9239;50.932;3.142;2023-04-01T08:53:59;3.20;;;2.40;;
18228;SDS011;9239;50.932;3.142;2023-04-01T08:56:42;4.70;;;3.40;;
18228;SDS011;9239;50.932;3.142;2023-04-01T08:59:27;6.97;;;3.40;;
18228;SDS011;9239;50.932;3.142;2023-04-01T09:02:18;5.30;;;2.60;;
18228;SDS011;9239;50.932;3.142;2023-04-01T09:08:19;2.73;;;2.20;;
18228;SDS011;9239;50.932;3.142;2023-04-01T09:11:12;4.30;;;2.40;;
18228;SDS011;9239;50.932;3.142;2023-04-01T09:13:58;4.43;;;3.03;;
18228;SDS011;9239;50.932;3.142;2023-04-01T09:19:51;4.77;;;2.60;;
18228;SDS011;9239;50.932;3.142;2023-04-01T09:22:32;2.90;;;2.50;;
18228;SDS011;9239;50.932;3.142;2023-04-01T09:28:09;4.00;;;2.53;;
18228;SDS011;9239;50.932;3.142;2023-04-01T09:33:43;3.97;;;2.67;;
18228;SDS011;9239;50.932;3.142;2023-04-01T09:36:42;4.00;;;2.60;;
18228;SDS011;9239;50.932;3.142;2023-04-01T09:42:15;3.40;;;1.80;;
18228;SDS011;9239;50.932;3.142;2023-04-01T09:45:07;2.47;;;1.33;;
18228;SDS011;9239;50.932;3.142;2023-04-01T09:47:46;1.20;;;1.10;;
18228;SDS011;9239;50.932;3.142;2023-04-01T09:50:35;2.73;;;1.13;;
18228;SDS011;9239;50.932;3.142;2023-04-01T09:53:15;1.40;;;1.30;;
18228;SDS011;9239;50.932;3.142;2023-04-01T10:08:29;1.73;;;1.40;;
18228;SDS011;9239;50.932;3.142;2023-04-01T10:17:30;4.77;;;1.57;;
18228;SDS011;9239;50.932;3.142;2023-04-01T10:20:23;4.80;;;2.00;;
18228;SDS011;9239;50.932;3.142;2023-04-01T10:23:10;4.60;;;1.80;;
18228;SDS011;9239;50.932;3.142;2023-04-01T10:26:02;2.13;;;1.67;;
18228;SDS011;9239;50.932;3.142;2023-04-01T10:28:54;1.83;;;1.33;;
18228;SDS011;9239;50.932;3.142;2023-04-01T10:34:39;3.20;;;1.70;;
18228;SDS011;9239;50.932;3.142;2023-04-01T10:37:44;3.63;;;2.80;;
18228;SDS011;9239;50.932;3.142;2023-04-01T10:40:44;2.00;;;1.47;;
18228;SDS011;9239;50.932;3.142;2023-04-01T10:47:02;2.90;;;1.43;;
18228;SDS011;9239;50.932;3.142;2023-04-01T10:50:00;2.93;;;1.50;;
18228;SDS011;9239;50.932;3.142;2023-04-01T10:55:37;2.83;;;1.63;;
18228;SDS011;9239;50.932;3.142;2023-04-01T10:58:40;2.67;;;1.30;;
18228;SDS011;9239;50.932;3.142;2023-04-01T11:01:48;2.47;;;1.40;;
18228;SDS011;9239;50.932;3.142;2023-04-01T11:07:58;1.93;;;1.27;;
18228;SDS011;9239;50.932;3.142;2023-04-01T11:10:57;2.43;;;1.40;;
18228;SDS011;9239;50.932;3.142;2023-04-01T11:22:51;2.57;;;1.10;;
18228;SDS011;9239;50.932;3.142;2023-04-01T11:25:36;2.07;;;1.13;;
18228;SDS011;9239;50.932;3.142;2023-04-01T11:28:25;3.63;;;1.43;;
18228;SDS011;9239;50.932;3.142;2023-04-01T11:31:14;1.83;;;1.57;;
18228;SDS011;9239;50.932;3.142;2023-04-01T11:34:24;2.20;;;1.57;;
18228;SDS011;9239;50.932;3.142;2023-04-01T11:37:05;1.87;;;1.43;;
18228;SDS011;9239;50.932;3.142;2023-04-01T11:39:42;5.00;;;3.40;;
18228;SDS011;9239;50.932;3.142;2023-04-01T11:42:20;1.40;;;1.30;;
18228;SDS011;9239;50.932;3.142;2023-04-01T11:44:57;3.60;;;1.40;;
18228;SDS011;9239;50.932;3.142;2023-04-01T11:47:44;3.83;;;1.30;;
18228;SDS011;9239;50.932;3.142;2023-04-01T11:50:35;1.97;;;1.40;;
18228;SDS011;9239;50.932;3.142;2023-04-01T11:53:20;3.03;;;1.50;;
18228;SDS011;9239;50.932;3.142;2023-04-01T11:58:52;3.77;;;1.53;;
18228;SDS011;9239;50.932;3.142;2023-04-01T12:01:52;3.03;;;2.73;;
18228;SDS011;9239;50.932;3.142;2023-04-01T12:07:42;1.43;;;1.00;;
18228;SDS011;9239;50.932;3.142;2023-04-01T12:10:20;2.43;;;1.00;;
18228;SDS011;9239;50.932;3.142;2023-04-01T12:12:53;1.30;;;0.70;;
18228;SDS011;9239;50.932;3.142;2023-04-01T12:15:27;0.90;;;0.67;;
18228;SDS011;9239;50.932;3.142;2023-04-01T12:18:03;1.93;;;0.80;;
18228;SDS011;9239;50.932;3.142;2023-04-01T12:20:47;0.80;;;0.60;;
18228;SDS011;9239;50.932;3.142;2023-04-01T12:26:19;0.87;;;0.87;;
18228;SDS011;9239;50.932;3.142;2023-04-01T12:29:07;1.00;;;0.83;;
18228;SDS011;9239;50.932;3.142;2023-04-01T12:31:47;0.60;;;0.60;;
18228;SDS011;9239;50.932;3.142;2023-04-01T12:34:37;2.60;;;0.70;;
18228;SDS011;9239;50.932;3.142;2023-04-01T12:37:31;0.80;;;0.73;;
18228;SDS011;9239;50.932;3.142;2023-04-01T12:40:14;0.60;;;0.60;;
18228;SDS011;9239;50.932;3.142;2023-04-01T12:46:03;0.90;;;0.80;;
18228;SDS011;9239;50.932;3.142;2023-04-01T12:48:42;1.40;;;1.30;;
18228;SDS011;9239;50.932;3.142;2023-04-01T12:51:47;2.40;;;1.43;;
18228;SDS011;9239;50.932;3.142;2023-04-01T12:57:29;1.80;;;1.47;;
18228;SDS011;9239;50.932;3.142;2023-04-01T13:00:23;3.13;;;1.10;;
18228;SDS011;9239;50.932;3.142;2023-04-01T13:03:11;3.67;;;1.30;;
18228;SDS011;9239;50.932;3.142;2023-04-01T13:06:00;1.40;;;1.30;;
18228;SDS011;9239;50.932;3.142;2023-04-01T13:08:47;3.20;;;1.23;;
18228;SDS011;9239;50.932;3.142;2023-04-01T13:11:20;1.40;;;1.20;;
18228;SDS011;9239;50.932;3.142;2023-04-01T13:14:04;1.63;;;1.47;;
18228;SDS011;9239;50.932;3.142;2023-04-01T13:16:45;0.90;;;0.80;;
18228;SDS011;9239;50.932;3.142;2023-04-01T13:19:21;2.37;;;1.07;;
18228;SDS011;9239;50.932;3.142;2023-04-01T13:21:55;2.80;;;1.00;;
18228;SDS011;9239;50.932;3.142;2023-04-01T13:24:31;1.27;;;1.17;;
18228;SDS011;9239;50.932;3.142;2023-04-01T13:27:18;1.93;;;0.97;;
18228;SDS011;9239;50.932;3.142;2023-04-01T13:29:57;1.03;;;1.00;;
18228;SDS011;9239;50.932;3.142;2023-04-01T13:32:34;2.67;;;1.40;;
18228;SDS011;9239;50.932;3.142;2023-04-01T13:35:10;2.17;;;1.07;;
18228;SDS011;9239;50.932;3.142;2023-04-01T13:37:52;1.80;;;1.30;;
18228;SDS011;9239;50.932;3.142;2023-04-01T13:40:33;1.37;;;1.10;;
18228;SDS011;9239;50.932;3.142;2023-04-01T13:43:10;1.37;;;1.20;;
18228;SDS011;9239;50.932;3.142;2023-04-01T13:45:50;3.07;;;1.20;;
18228;SDS011;9239;50.932;3.142;2023-04-01T13:48:34;2.47;;;1.97;;
18228;SDS011;9239;50.932;3.142;2023-04-01T13:51:23;1.63;;;0.93;;
18228;SDS011;9239;50.932;3.142;2023-04-01T13:54:00;2.43;;;1.37;;
18228;SDS011;9239;50.932;3.142;2023-04-01T13:57:07;3.93;;;1.10;;
18228;SDS011;9239;50.932;3.142;2023-04-01T13:59:55;2.63;;;2.13;;
18228;SDS011;9239;50.932;3.142;2023-04-01T14:05:28;2.20;;;1.50;;
18228;SDS011;9239;50.932;3.142;2023-04-01T14:08:15;1.60;;;1.40;;
18228;SDS011;9239;50.932;3.142;2023-04-01T14:10:50;1.67;;;1.23;;
18228;SDS011;9239;50.932;3.142;2023-04-01T14:13:30;2.87;;;1.70;;
18228;SDS011;9239;50.932;3.142;2023-04-01T14:16:08;2.27;;;2.13;;
18228;SDS011;9239;50.932;3.142;2023-04-01T14:18:50;1.67;;;1.57;;
18228;SDS011;9239;50.932;3.142;2023-04-01T14:21:30;2.47;;;1.30;;
18228;SDS011;9239;50.932;3.142;2023-04-01T14:24:14;1.67;;;1.43;;
18228;SDS011;9239;50.932;3.142;2023-04-01T14:26:57;4.43;;;1.60;;
18228;SDS011;9239;50.932;3.142;2023-04-01T14:29:45;2.23;;;1.90;;
18228;SDS011;9239;50.932;3.142;2023-04-01T14:32:27;2.80;;;1.83;;
18228;SDS011;9239;50.932;3.142;2023-04-01T14:38:04;3.63;;;1.90;;
18228;SDS011;9239;50.932;3.142;2023-04-01T14:41:06;3.20;;;1.63;;
18228;SDS011;9239;50.932;3.142;2023-04-01T14:46:56;2.93;;;1.63;;
18228;SDS011;9239;50.932;3.142;2023-04-01T14:49:36;2.70;;;1.67;;
18228;SDS011;9239;50.932;3.142;2023-04-01T14:52:09;2.40;;;1.77;;
18228;SDS011;9239;50.932;3.142;2023-04-01T14:54:40;3.23;;;1.80;;
18228;SDS011;9239;50.932;3.142;2023-04-01T14:57:10;3.23;;;1.80;;
18228;SDS011;9239;50.932;3.142;2023-04-01T14:59:39;3.50;;;1.77;;
18228;SDS011;9239;50.932;3.142;2023-04-01T15:02:10;1.77;;;1.53;;
18228;SDS011;9239;50.932;3.142;2023-04-01T15:04:51;3.57;;;1.50;;
18228;SDS011;9239;50.932;3.142;2023-04-01T15:10:24;1.50;;;1.40;;
18228;SDS011;9239;50.932;3.142;2023-04-01T15:13:09;2.43;;;1.47;;
18228;SDS011;9239;50.932;3.142;2023-04-01T15:15:45;4.77;;;1.67;;
18228;SDS011;9239;50.932;3.142;2023-04-01T15:18:26;4.07;;;1.67;;
18228;SDS011;9239;50.932;3.142;2023-04-01T15:21:13;2.27;;;1.77;;
18228;SDS011;9239;50.932;3.142;2023-04-01T15:23:47;4.97;;;2.13;;
18228;SDS011;9239;50.932;3.142;2023-04-01T15:26:26;3.57;;;1.77;;
18228;SDS011;9239;50.932;3.142;2023-04-01T15:29:06;3.73;;;1.80;;
18228;SDS011;9239;50.932;3.142;2023-04-01T15:31:47;4.40;;;1.97;;
18228;SDS011;9239;50.932;3.142;2023-04-01T15:34:21;6.47;;;2.90;;
18228;SDS011;9239;50.932;3.142;2023-04-01T15:36:57;4.03;;;3.13;;
18228;SDS011;9239;50.932;3.142;2023-04-01T15:39:36;3.40;;;2.33;;
18228;SDS011;9239;50.932;3.142;2023-04-01T15:42:15;7.17;;;2.97;;
18228;SDS011;9239;50.932;3.142;2023-04-01T15:45:01;8.47;;;2.50;;
18228;SDS011;9239;50.932;3.142;2023-04-01T15:47:36;3.33;;;2.10;;
18228;SDS011;9239;50.932;3.142;2023-04-01T15:53:03;5.00;;;2.67;;
18228;SDS011;9239;50.932;3.142;2023-04-01T15:55:40;5.50;;;2.10;;
18228;SDS011;9239;50.932;3.142;2023-04-01T15:58:20;5.00;;;2.77;;
18228;SDS011;9239;50.932;3.142;2023-04-01T16:01:04;7.17;;;2.93;;
18228;SDS011;9239;50.932;3.142;2023-04-01T16:03:43;5.90;;;2.10;;
18228;SDS011;9239;50.932;3.142;2023-04-01T16:06:33;6.40;;;2.83;;
18228;SDS011;9239;50.932;3.142;2023-04-01T16:09:23;7.53;;;2.03;;
18228;SDS011;9239;50.932;3.142;2023-04-01T16:12:03;10.27;;;2.50;;
18228;SDS011;9239;50.932;3.142;2023-04-01T16:14:38;7.03;;;2.43;;
18228;SDS011;9239;50.932;3.142;2023-04-01T16:20:13;6.80;;;2.40;;
18228;SDS011;9239;50.932;3.142;2023-04-01T16:22:45;8.83;;;2.13;;
18228;SDS011;9239;50.932;3.142;2023-04-01T16:25:24;6.50;;;1.83;;
18228;SDS011;9239;50.932;3.142;2023-04-01T16:28:03;6.90;;;2.17;;
18228;SDS011;9239;50.932;3.142;2023-04-01T16:30:43;7.70;;;2.43;;
18228;SDS011;9239;50.932;3.142;2023-04-01T16:33:15;7.70;;;3.17;;
18228;SDS011;9239;50.932;3.142;2023-04-01T16:35:52;5.63;;;2.23;;
18228;SDS011;9239;50.932;3.142;2023-04-01T16:38:24;6.33;;;2.13;;
18228;SDS011;9239;50.932;3.142;2023-04-01T16:41:04;5.80;;;2.33;;
18228;SDS011;9239;50.932;3.142;2023-04-01T16:43:38;3.90;;;1.73;;
18228;SDS011;9239;50.932;3.142;2023-04-01T16:46:19;6.53;;;2.00;;
18228;SDS011;9239;50.932;3.142;2023-04-01T16:49:00;2.50;;;2.07;;
18228;SDS011;9239;50.932;3.142;2023-04-01T16:51:41;4.00;;;2.13;;
18228;SDS011;9239;50.932;3.142;2023-04-01T16:54:14;3.73;;;2.00;;
18228;SDS011;9239;50.932;3.142;2023-04-01T16:56:53;5.00;;;1.90;;
18228;SDS011;9239;50.932;3.142;2023-04-01T16:59:21;6.93;;;2.20;;
18228;SDS011;9239;50.932;3.142;2023-04-01T17:01:53;2.33;;;1.50;;
18228;SDS011;9239;50.932;3.142;2023-04-01T17:04:26;5.47;;;2.17;;
18228;SDS011;9239;50.932;3.142;2023-04-01T17:07:01;3.53;;;1.60;;
18228;SDS011;9239;50.932;3.142;2023-04-01T17:09:40;4.07;;;2.20;;
18228;SDS011;9239;50.932;3.142;2023-04-01T17:12:19;3.70;;;1.70;;
18228;SDS011;9239;50.932;3.142;2023-04-01T17:14:54;5.30;;;1.83;;
18228;SDS011;9239;50.932;3.142;2023-04-01T17:17:28;5.43;;;2.33;;
18228;SDS011;9239;50.932;3.142;2023-04-01T17:20:06;6.33;;;2.50;;
18228;SDS011;9239;50.932;3.142;2023-04-01T17:22:58;2.90;;;2.50;;
18228;SDS011;9239;50.932;3.142;2023-04-01T17:25:38;8.43;;;4.00;;
18228;SDS011;9239;50.932;3.142;2023-04-01T17:28:26;5.30;;;2.80;;